sensor_id;sensor_type;location;lat;lon;timestamp;temperature;humidity
12708;DHT22;6418;50.824;4.718;2022-07-12T00:02:00;18.50;99.90
12708;DHT22;6418;50.824;4.718;2022-07-12T00:04:27;18.50;99.90
12708;DHT22;6418;50.824;4.718;2022-07-12T00:06:56;18.40;99.90
12708;DHT22;6418;50.824;4.718;2022-07-12T00:09:23;18.40;99.90
12708;DHT22;6418;50.824;4.718;2022-07-12T00:11:50;18.30;99.90
12708;DHT22;6418;50.824;4.718;2022-07-12T00:14:16;18.20;99.90
12708;DHT22;6418;50.824;4.718;2022-07-12T00:16:43;18.10;99.90
12708;DHT22;6418;50.824;4.718;2022-07-12T00:19:10;18.00;99.90
12708;DHT22;6418;50.824;4.718;2022-07-12T00:21:37;18.00;99.90
12708;DHT22;6418;50.824;4.718;2022-07-12T00:24:06;17.80;99.90
12708;DHT22;6418;50.824;4.718;2022-07-12T00:26:33;17.90;99.90
12708;DHT22;6418;50.824;4.718;2022-07-12T00:29:00;17.70;99.90
12708;DHT22;6418;50.824;4.718;2022-07-12T00:31:27;17.70;99.90
12708;DHT22;6418;50.824;4.718;2022-07-12T00:33:54;17.70;99.90
12708;DHT22;6418;50.824;4.718;2022-07-12T00:36:21;17.60;99.90
12708;DHT22;6418;50.824;4.718;2022-07-12T00:38:49;17.60;99.90
12708;DHT22;6418;50.824;4.718;2022-07-12T00:41:17;17.60;99.90
12708;DHT22;6418;50.824;4.718;2022-07-12T00:43:44;17.50;99.90
12708;DHT22;6418;50.824;4.718;2022-07-12T00:46:14;17.50;99.90
12708;DHT22;6418;50.824;4.718;2022-07-12T00:48:41;17.50;99.90
12708;DHT22;6418;50.824;4.718;2022-07-12T00:51:08;17.40;99.90
12708;DHT22;6418;50.824;4.718;2022-07-12T00:53:35;17.30;99.90
12708;DHT22;6418;50.824;4.718;2022-07-12T00:56:03;17.10;99.90
12708;DHT22;6418;50.824;4.718;2022-07-12T00:58:32;17.10;99.90
12708;DHT22;6418;50.824;4.718;2022-07-12T01:00:59;17.10;99.90
12708;DHT22;6418;50.824;4.718;2022-07-12T01:03:26;17.10;99.90
12708;DHT22;6418;50.824;4.718;2022-07-12T01:05:54;17.00;99.90
12708;DHT22;6418;50.824;4.718;2022-07-12T01:08:21;17.00;99.90
12708;DHT22;6418;50.824;4.718;2022-07-12T01:10:48;16.90;99.90
12708;DHT22;6418;50.824;4.718;2022-07-12T01:13:16;16.70;99.90
12708;DHT22;6418;50.824;4.718;2022-07-12T01:15:45;16.70;99.90
12708;DHT22;6418;50.824;4.718;2022-07-12T01:18:14;16.70;99.90
12708;DHT22;6418;50.824;4.718;2022-07-12T01:20:42;16.70;99.90
12708;DHT22;6418;50.824;4.718;2022-07-12T01:23:11;16.70;99.90
12708;DHT22;6418;50.824;4.718;2022-07-12T01:25:38;16.70;99.90
12708;DHT22;6418;50.824;4.718;2022-07-12T01:28:05;16.70;99.90
12708;DHT22;6418;50.824;4.718;2022-07-12T01:30:32;16.60;99.90
12708;DHT22;6418;50.824;4.718;2022-07-12T01:33:00;16.60;99.90
12708;DHT22;6418;50.824;4.718;2022-07-12T01:35:28;16.60;99.90
12708;DHT22;6418;50.824;4.718;2022-07-12T01:37:55;16.50;99.90
12708;DHT22;6418;50.824;4.718;2022-07-12T01:40:24;16.50;99.90
12708;DHT22;6418;50.824;4.718;2022-07-12T01:42:51;16.40;99.90
12708;DHT22;6418;50.824;4.718;2022-07-12T01:45:19;16.40;99.90
12708;DHT22;6418;50.824;4.718;2022-07-12T01:47:46;16.40;99.90
12708;DHT22;6418;50.824;4.718;2022-07-12T01:50:15;16.30;99.90
12708;DHT22;6418;50.824;4.718;2022-07-12T01:52:42;16.20;99.90
12708;DHT22;6418;50.824;4.718;2022-07-12T01:55:10;16.20;99.90
12708;DHT22;6418;50.824;4.718;2022-07-12T01:57:41;16.20;99.90
12708;DHT22;6418;50.824;4.718;2022-07-12T02:00:09;16.20;99.90
12708;DHT22;6418;50.824;4.718;2022-07-12T02:02:37;16.10;99.90
12708;DHT22;6418;50.824;4.718;2022-07-12T02:05:05;16.10;99.90
12708;DHT22;6418;50.824;4.718;2022-07-12T02:07:32;16.00;99.90
12708;DHT22;6418;50.824;4.718;2022-07-12T02:09:59;16.00;99.90
12708;DHT22;6418;50.824;4.718;2022-07-12T02:12:26;16.00;99.90
12708;DHT22;6418;50.824;4.718;2022-07-12T02:14:54;15.90;99.90
12708;DHT22;6418;50.824;4.718;2022-07-12T02:17:21;15.90;99.90
12708;DHT22;6418;50.824;4.718;2022-07-12T02:19:48;15.90;99.90
12708;DHT22;6418;50.824;4.718;2022-07-12T02:22:15;15.80;99.90
12708;DHT22;6418;50.824;4.718;2022-07-12T02:24:42;15.80;99.90
12708;DHT22;6418;50.824;4.718;2022-07-12T02:27:09;15.80;99.90
12708;DHT22;6418;50.824;4.718;2022-07-12T02:29:36;15.80;99.90
12708;DHT22;6418;50.824;4.718;2022-07-12T02:32:05;15.70;99.90
12708;DHT22;6418;50.824;4.718;2022-07-12T02:34:32;15.70;99.90
12708;DHT22;6418;50.824;4.718;2022-07-12T02:36:59;15.70;99.90
12708;DHT22;6418;50.824;4.718;2022-07-12T02:39:26;15.60;99.90
12708;DHT22;6418;50.824;4.718;2022-07-12T02:41:53;15.60;99.90
12708;DHT22;6418;50.824;4.718;2022-07-12T02:44:20;15.60;99.90
12708;DHT22;6418;50.824;4.718;2022-07-12T02:46:47;15.50;99.90
12708;DHT22;6418;50.824;4.718;2022-07-12T02:49:15;15.50;99.90
12708;DHT22;6418;50.824;4.718;2022-07-12T02:51:42;15.50;99.90
12708;DHT22;6418;50.824;4.718;2022-07-12T02:54:09;15.40;99.90
12708;DHT22;6418;50.824;4.718;2022-07-12T02:56:36;15.40;99.90
12708;DHT22;6418;50.824;4.718;2022-07-12T02:59:02;15.40;99.90
12708;DHT22;6418;50.824;4.718;2022-07-12T03:01:29;15.40;99.90
12708;DHT22;6418;50.824;4.718;2022-07-12T03:03:56;15.40;99.90
12708;DHT22;6418;50.824;4.718;2022-07-12T03:06:24;15.40;99.90
12708;DHT22;6418;50.824;4.718;2022-07-12T03:08:51;15.30;99.90
12708;DHT22;6418;50.824;4.718;2022-07-12T03:11:18;15.30;99.90
12708;DHT22;6418;50.824;4.718;2022-07-12T03:13:45;15.30;99.90
12708;DHT22;6418;50.824;4.718;2022-07-12T03:16:12;15.20;99.90
12708;DHT22;6418;50.824;4.718;2022-07-12T03:18:40;15.20;99.90
12708;DHT22;6418;50.824;4.718;2022-07-12T03:21:07;15.20;99.90
12708;DHT22;6418;50.824;4.718;2022-07-12T03:23:35;15.10;99.90
12708;DHT22;6418;50.824;4.718;2022-07-12T03:26:02;15.10;99.90
12708;DHT22;6418;50.824;4.718;2022-07-12T03:28:29;15.10;99.90
12708;DHT22;6418;50.824;4.718;2022-07-12T03:30:56;15.10;99.90
12708;DHT22;6418;50.824;4.718;2022-07-12T03:33:23;15.10;99.90
12708;DHT22;6418;50.824;4.718;2022-07-12T03:35:50;15.00;99.90
12708;DHT22;6418;50.824;4.718;2022-07-12T03:38:17;15.00;99.90
12708;DHT22;6418;50.824;4.718;2022-07-12T03:40:45;15.00;99.90
12708;DHT22;6418;50.824;4.718;2022-07-12T03:43:14;15.10;99.90
12708;DHT22;6418;50.824;4.718;2022-07-12T03:45:41;15.00;99.90
12708;DHT22;6418;50.824;4.718;2022-07-12T03:48:08;15.00;99.90
12708;DHT22;6418;50.824;4.718;2022-07-12T03:50:35;15.00;99.90
12708;DHT22;6418;50.824;4.718;2022-07-12T03:53:02;14.90;99.90
12708;DHT22;6418;50.824;4.718;2022-07-12T03:55:29;14.90;99.90
12708;DHT22;6418;50.824;4.718;2022-07-12T03:57:57;14.90;99.90
12708;DHT22;6418;50.824;4.718;2022-07-12T04:00:24;14.90;99.90
12708;DHT22;6418;50.824;4.718;2022-07-12T04:02:51;14.90;99.90
12708;DHT22;6418;50.824;4.718;2022-07-12T04:05:19;14.80;99.90
12708;DHT22;6418;50.824;4.718;2022-07-12T04:07:51;14.80;99.90
12708;DHT22;6418;50.824;4.718;2022-07-12T04:10:19;14.80;99.90
12708;DHT22;6418;50.824;4.718;2022-07-12T04:12:46;14.80;99.90
12708;DHT22;6418;50.824;4.718;2022-07-12T04:15:14;14.80;99.90
12708;DHT22;6418;50.824;4.718;2022-07-12T04:17:41;14.80;99.90
12708;DHT22;6418;50.824;4.718;2022-07-12T04:20:09;14.70;99.90
12708;DHT22;6418;50.824;4.718;2022-07-12T04:22:37;14.70;99.90
12708;DHT22;6418;50.824;4.718;2022-07-12T04:25:05;14.70;99.90
12708;DHT22;6418;50.824;4.718;2022-07-12T04:27:33;14.70;99.90
12708;DHT22;6418;50.824;4.718;2022-07-12T04:29:59;14.70;99.90
12708;DHT22;6418;50.824;4.718;2022-07-12T04:32:28;14.60;99.90
12708;DHT22;6418;50.824;4.718;2022-07-12T04:34:55;14.60;99.90
12708;DHT22;6418;50.824;4.718;2022-07-12T04:37:21;14.60;99.90
12708;DHT22;6418;50.824;4.718;2022-07-12T04:39:48;14.60;99.90
12708;DHT22;6418;50.824;4.718;2022-07-12T04:42:15;14.70;99.90
12708;DHT22;6418;50.824;4.718;2022-07-12T04:44:42;14.70;99.90
12708;DHT22;6418;50.824;4.718;2022-07-12T04:47:09;14.70;99.90
12708;DHT22;6418;50.824;4.718;2022-07-12T04:49:37;14.80;99.90
12708;DHT22;6418;50.824;4.718;2022-07-12T04:52:05;14.80;99.90
12708;DHT22;6418;50.824;4.718;2022-07-12T04:54:32;14.90;99.90
12708;DHT22;6418;50.824;4.718;2022-07-12T04:56:59;14.90;99.90
12708;DHT22;6418;50.824;4.718;2022-07-12T04:59:26;15.00;99.90
12708;DHT22;6418;50.824;4.718;2022-07-12T05:01:53;15.00;99.90
12708;DHT22;6418;50.824;4.718;2022-07-12T05:04:20;15.10;99.90
12708;DHT22;6418;50.824;4.718;2022-07-12T05:06:48;15.10;99.90
12708;DHT22;6418;50.824;4.718;2022-07-12T05:09:15;15.20;99.90
12708;DHT22;6418;50.824;4.718;2022-07-12T05:11:42;15.30;99.90
12708;DHT22;6418;50.824;4.718;2022-07-12T05:14:09;15.40;99.90
12708;DHT22;6418;50.824;4.718;2022-07-12T05:16:36;15.50;99.90
12708;DHT22;6418;50.824;4.718;2022-07-12T05:19:03;15.60;99.90
12708;DHT22;6418;50.824;4.718;2022-07-12T05:21:30;15.70;99.90
12708;DHT22;6418;50.824;4.718;2022-07-12T05:23:59;15.80;99.90
12708;DHT22;6418;50.824;4.718;2022-07-12T05:26:26;15.90;99.90
12708;DHT22;6418;50.824;4.718;2022-07-12T05:28:53;15.90;99.90
12708;DHT22;6418;50.824;4.718;2022-07-12T05:31:20;16.00;99.90
12708;DHT22;6418;50.824;4.718;2022-07-12T05:33:49;16.10;99.90
12708;DHT22;6418;50.824;4.718;2022-07-12T05:36:16;16.20;99.90
12708;DHT22;6418;50.824;4.718;2022-07-12T05:38:43;16.30;99.90
12708;DHT22;6418;50.824;4.718;2022-07-12T05:41:11;16.40;99.90
12708;DHT22;6418;50.824;4.718;2022-07-12T05:43:38;16.50;99.90
12708;DHT22;6418;50.824;4.718;2022-07-12T05:46:05;16.60;99.90
12708;DHT22;6418;50.824;4.718;2022-07-12T05:48:32;16.70;99.90
12708;DHT22;6418;50.824;4.718;2022-07-12T05:50:59;16.80;99.90
12708;DHT22;6418;50.824;4.718;2022-07-12T05:53:46;16.80;99.90
12708;DHT22;6418;50.824;4.718;2022-07-12T05:56:13;16.90;99.90
12708;DHT22;6418;50.824;4.718;2022-07-12T05:58:40;17.00;99.90
12708;DHT22;6418;50.824;4.718;2022-07-12T06:01:08;17.10;99.90
12708;DHT22;6418;50.824;4.718;2022-07-12T06:03:34;17.20;99.90
12708;DHT22;6418;50.824;4.718;2022-07-12T06:06:01;17.30;99.90
12708;DHT22;6418;50.824;4.718;2022-07-12T06:08:28;17.30;99.90
12708;DHT22;6418;50.824;4.718;2022-07-12T06:10:55;17.40;99.90
12708;DHT22;6418;50.824;4.718;2022-07-12T06:13:23;17.50;99.90
12708;DHT22;6418;50.824;4.718;2022-07-12T06:15:50;17.50;99.90
12708;DHT22;6418;50.824;4.718;2022-07-12T06:18:17;17.60;99.90
12708;DHT22;6418;50.824;4.718;2022-07-12T06:20:44;17.60;99.90
12708;DHT22;6418;50.824;4.718;2022-07-12T06:23:11;17.60;99.90
12708;DHT22;6418;50.824;4.718;2022-07-12T06:25:38;17.70;99.90
12708;DHT22;6418;50.824;4.718;2022-07-12T06:28:05;17.80;99.90
12708;DHT22;6418;50.824;4.718;2022-07-12T06:30:33;17.80;99.90
12708;DHT22;6418;50.824;4.718;2022-07-12T06:33:00;17.90;99.90
12708;DHT22;6418;50.824;4.718;2022-07-12T06:35:27;17.90;99.90
12708;DHT22;6418;50.824;4.718;2022-07-12T06:37:54;18.00;99.90
12708;DHT22;6418;50.824;4.718;2022-07-12T06:40:21;18.10;99.90
12708;DHT22;6418;50.824;4.718;2022-07-12T06:42:49;18.20;99.90
12708;DHT22;6418;50.824;4.718;2022-07-12T06:45:16;18.20;99.90
12708;DHT22;6418;50.824;4.718;2022-07-12T06:47:44;18.30;99.90
12708;DHT22;6418;50.824;4.718;2022-07-12T06:50:12;18.30;99.90
12708;DHT22;6418;50.824;4.718;2022-07-12T06:52:39;18.40;99.90
12708;DHT22;6418;50.824;4.718;2022-07-12T06:55:07;18.50;99.90
12708;DHT22;6418;50.824;4.718;2022-07-12T06:57:34;18.50;99.90
12708;DHT22;6418;50.824;4.718;2022-07-12T07:00:03;18.60;99.90
12708;DHT22;6418;50.824;4.718;2022-07-12T07:02:31;18.70;99.90
12708;DHT22;6418;50.824;4.718;2022-07-12T07:04:59;18.70;99.90
12708;DHT22;6418;50.824;4.718;2022-07-12T07:07:26;18.80;99.90
12708;DHT22;6418;50.824;4.718;2022-07-12T07:09:53;18.80;99.90
12708;DHT22;6418;50.824;4.718;2022-07-12T07:12:20;18.90;99.90
12708;DHT22;6418;50.824;4.718;2022-07-12T07:14:47;19.00;99.90
12708;DHT22;6418;50.824;4.718;2022-07-12T07:17:15;19.00;99.90
12708;DHT22;6418;50.824;4.718;2022-07-12T07:19:43;19.10;99.90
12708;DHT22;6418;50.824;4.718;2022-07-12T07:22:12;19.20;99.90
12708;DHT22;6418;50.824;4.718;2022-07-12T07:24:39;19.20;99.90
12708;DHT22;6418;50.824;4.718;2022-07-12T07:27:06;19.20;99.90
12708;DHT22;6418;50.824;4.718;2022-07-12T07:29:33;19.30;99.90
12708;DHT22;6418;50.824;4.718;2022-07-12T07:32:17;19.40;99.90
12708;DHT22;6418;50.824;4.718;2022-07-12T07:34:44;19.40;99.90
12708;DHT22;6418;50.824;4.718;2022-07-12T07:37:13;19.50;99.90
12708;DHT22;6418;50.824;4.718;2022-07-12T07:39:39;19.50;99.90
12708;DHT22;6418;50.824;4.718;2022-07-12T07:42:06;19.60;99.90
12708;DHT22;6418;50.824;4.718;2022-07-12T07:44:33;19.60;99.90
12708;DHT22;6418;50.824;4.718;2022-07-12T07:47:00;19.70;99.90
12708;DHT22;6418;50.824;4.718;2022-07-12T07:49:27;19.80;99.90
12708;DHT22;6418;50.824;4.718;2022-07-12T07:51:54;19.90;99.90
12708;DHT22;6418;50.824;4.718;2022-07-12T07:54:22;20.00;99.90
12708;DHT22;6418;50.824;4.718;2022-07-12T07:56:49;20.00;99.90
12708;DHT22;6418;50.824;4.718;2022-07-12T07:59:16;20.20;99.90
12708;DHT22;6418;50.824;4.718;2022-07-12T08:01:43;20.30;99.90
12708;DHT22;6418;50.824;4.718;2022-07-12T08:04:11;20.30;99.90
12708;DHT22;6418;50.824;4.718;2022-07-12T08:06:38;20.50;99.90
12708;DHT22;6418;50.824;4.718;2022-07-12T08:09:05;20.50;99.90
12708;DHT22;6418;50.824;4.718;2022-07-12T08:11:34;20.60;99.90
12708;DHT22;6418;50.824;4.718;2022-07-12T08:14:01;20.70;99.90
12708;DHT22;6418;50.824;4.718;2022-07-12T08:16:28;20.80;99.90
12708;DHT22;6418;50.824;4.718;2022-07-12T08:18:56;20.90;99.90
12708;DHT22;6418;50.824;4.718;2022-07-12T08:21:23;21.00;99.90
12708;DHT22;6418;50.824;4.718;2022-07-12T08:23:50;21.00;99.90
12708;DHT22;6418;50.824;4.718;2022-07-12T08:26:19;21.10;99.90
12708;DHT22;6418;50.824;4.718;2022-07-12T08:28:47;21.20;99.90
12708;DHT22;6418;50.824;4.718;2022-07-12T08:31:14;21.30;99.90
12708;DHT22;6418;50.824;4.718;2022-07-12T08:33:41;21.40;99.90
12708;DHT22;6418;50.824;4.718;2022-07-12T08:36:08;21.50;99.90
12708;DHT22;6418;50.824;4.718;2022-07-12T08:38:35;21.60;99.90
12708;DHT22;6418;50.824;4.718;2022-07-12T08:41:03;21.60;99.90
12708;DHT22;6418;50.824;4.718;2022-07-12T08:43:33;21.70;99.90
12708;DHT22;6418;50.824;4.718;2022-07-12T08:46:06;21.70;99.90
12708;DHT22;6418;50.824;4.718;2022-07-12T08:48:34;21.70;99.90
12708;DHT22;6418;50.824;4.718;2022-07-12T08:51:02;21.70;99.90
12708;DHT22;6418;50.824;4.718;2022-07-12T08:53:30;21.80;99.90
12708;DHT22;6418;50.824;4.718;2022-07-12T08:55:57;21.80;99.90
12708;DHT22;6418;50.824;4.718;2022-07-12T08:58:24;21.80;99.90
12708;DHT22;6418;50.824;4.718;2022-07-12T09:00:51;21.80;99.90
12708;DHT22;6418;50.824;4.718;2022-07-12T09:03:20;21.90;99.90
12708;DHT22;6418;50.824;4.718;2022-07-12T09:05:48;21.90;99.90
12708;DHT22;6418;50.824;4.718;2022-07-12T09:08:16;22.00;99.90
12708;DHT22;6418;50.824;4.718;2022-07-12T09:10:57;22.00;99.90
12708;DHT22;6418;50.824;4.718;2022-07-12T09:13:47;22.00;99.90
12708;DHT22;6418;50.824;4.718;2022-07-12T09:16:15;22.10;99.90
12708;DHT22;6418;50.824;4.718;2022-07-12T09:18:44;22.10;99.90
12708;DHT22;6418;50.824;4.718;2022-07-12T09:21:21;22.20;99.90
12708;DHT22;6418;50.824;4.718;2022-07-12T09:23:52;22.30;99.90
12708;DHT22;6418;50.824;4.718;2022-07-12T09:26:19;22.30;99.90
12708;DHT22;6418;50.824;4.718;2022-07-12T09:28:49;22.30;99.90
12708;DHT22;6418;50.824;4.718;2022-07-12T09:31:17;22.40;99.90
12708;DHT22;6418;50.824;4.718;2022-07-12T09:34:00;22.50;99.90
12708;DHT22;6418;50.824;4.718;2022-07-12T09:36:54;22.50;99.90
12708;DHT22;6418;50.824;4.718;2022-07-12T09:39:22;22.60;99.90
12708;DHT22;6418;50.824;4.718;2022-07-12T09:41:51;22.70;99.90
12708;DHT22;6418;50.824;4.718;2022-07-12T09:44:19;22.80;99.90
12708;DHT22;6418;50.824;4.718;2022-07-12T09:46:47;22.90;99.90
12708;DHT22;6418;50.824;4.718;2022-07-12T09:49:16;23.10;99.90
12708;DHT22;6418;50.824;4.718;2022-07-12T09:51:44;23.20;99.90
12708;DHT22;6418;50.824;4.718;2022-07-12T09:54:14;23.20;99.90
12708;DHT22;6418;50.824;4.718;2022-07-12T09:56:47;23.30;99.90
12708;DHT22;6418;50.824;4.718;2022-07-12T09:59:17;23.30;99.90
12708;DHT22;6418;50.824;4.718;2022-07-12T10:01:47;23.40;99.90
12708;DHT22;6418;50.824;4.718;2022-07-12T10:04:16;23.50;99.90
12708;DHT22;6418;50.824;4.718;2022-07-12T10:06:46;23.60;99.90
12708;DHT22;6418;50.824;4.718;2022-07-12T10:09:14;23.70;99.90
12708;DHT22;6418;50.824;4.718;2022-07-12T10:11:42;23.80;99.90
12708;DHT22;6418;50.824;4.718;2022-07-12T10:14:10;23.90;99.90
12708;DHT22;6418;50.824;4.718;2022-07-12T10:16:38;24.00;99.90
12708;DHT22;6418;50.824;4.718;2022-07-12T10:19:28;24.10;99.90
12708;DHT22;6418;50.824;4.718;2022-07-12T10:21:58;24.20;99.90
12708;DHT22;6418;50.824;4.718;2022-07-12T10:24:51;24.30;99.90
12708;DHT22;6418;50.824;4.718;2022-07-12T10:27:31;24.40;99.90
12708;DHT22;6418;50.824;4.718;2022-07-12T10:30:16;24.50;99.90
12708;DHT22;6418;50.824;4.718;2022-07-12T10:32:45;24.60;99.90
12708;DHT22;6418;50.824;4.718;2022-07-12T10:35:17;24.60;99.90
12708;DHT22;6418;50.824;4.718;2022-07-12T10:38:18;24.70;99.90
12708;DHT22;6418;50.824;4.718;2022-07-12T10:40:50;24.80;99.90
12708;DHT22;6418;50.824;4.718;2022-07-12T10:43:27;24.90;99.90
12708;DHT22;6418;50.824;4.718;2022-07-12T10:46:21;24.90;99.90
12708;DHT22;6418;50.824;4.718;2022-07-12T10:48:49;25.00;99.90
12708;DHT22;6418;50.824;4.718;2022-07-12T10:51:19;25.20;99.90
12708;DHT22;6418;50.824;4.718;2022-07-12T10:53:47;25.30;99.90
12708;DHT22;6418;50.824;4.718;2022-07-12T10:56:20;25.40;99.90
12708;DHT22;6418;50.824;4.718;2022-07-12T10:58:49;25.50;99.90
12708;DHT22;6418;50.824;4.718;2022-07-12T11:01:19;25.70;99.90
12708;DHT22;6418;50.824;4.718;2022-07-12T11:03:47;25.90;99.90
12708;DHT22;6418;50.824;4.718;2022-07-12T11:06:18;26.00;99.90
12708;DHT22;6418;50.824;4.718;2022-07-12T11:08:53;26.10;99.90
12708;DHT22;6418;50.824;4.718;2022-07-12T11:11:22;26.20;99.90
12708;DHT22;6418;50.824;4.718;2022-07-12T11:13:49;26.30;99.90
12708;DHT22;6418;50.824;4.718;2022-07-12T11:16:16;26.30;99.90
12708;DHT22;6418;50.824;4.718;2022-07-12T11:18:44;26.30;99.90
12708;DHT22;6418;50.824;4.718;2022-07-12T11:21:11;26.50;99.90
12708;DHT22;6418;50.824;4.718;2022-07-12T11:23:40;26.60;99.90
12708;DHT22;6418;50.824;4.718;2022-07-12T11:26:08;26.60;99.90
12708;DHT22;6418;50.824;4.718;2022-07-12T11:28:36;26.60;99.90
12708;DHT22;6418;50.824;4.718;2022-07-12T11:31:05;26.70;99.90
12708;DHT22;6418;50.824;4.718;2022-07-12T11:33:34;26.80;99.90
12708;DHT22;6418;50.824;4.718;2022-07-12T11:36:04;26.80;99.90
12708;DHT22;6418;50.824;4.718;2022-07-12T11:38:32;26.90;99.90
12708;DHT22;6418;50.824;4.718;2022-07-12T11:41:01;26.90;99.90
12708;DHT22;6418;50.824;4.718;2022-07-12T11:43:30;27.00;99.90
12708;DHT22;6418;50.824;4.718;2022-07-12T11:45:57;27.10;99.90
12708;DHT22;6418;50.824;4.718;2022-07-12T11:48:25;27.10;99.90
12708;DHT22;6418;50.824;4.718;2022-07-12T11:50:53;27.20;99.90
12708;DHT22;6418;50.824;4.718;2022-07-12T11:53:21;27.20;99.90
12708;DHT22;6418;50.824;4.718;2022-07-12T11:55:50;27.30;99.90
12708;DHT22;6418;50.824;4.718;2022-07-12T11:58:19;27.30;99.90
12708;DHT22;6418;50.824;4.718;2022-07-12T12:00:47;27.30;99.90
12708;DHT22;6418;50.824;4.718;2022-07-12T12:03:16;27.30;99.90
12708;DHT22;6418;50.824;4.718;2022-07-12T12:05:44;27.40;99.90
12708;DHT22;6418;50.824;4.718;2022-07-12T12:08:13;27.40;99.90
12708;DHT22;6418;50.824;4.718;2022-07-12T12:10:41;27.40;99.90
12708;DHT22;6418;50.824;4.718;2022-07-12T12:13:13;27.40;99.90
12708;DHT22;6418;50.824;4.718;2022-07-12T12:15:49;27.40;99.90
12708;DHT22;6418;50.824;4.718;2022-07-12T12:18:26;27.50;99.90
12708;DHT22;6418;50.824;4.718;2022-07-12T12:20:57;27.60;99.90
12708;DHT22;6418;50.824;4.718;2022-07-12T12:23:25;27.60;99.90
12708;DHT22;6418;50.824;4.718;2022-07-12T12:25:51;27.70;99.90
12708;DHT22;6418;50.824;4.718;2022-07-12T12:28:18;27.80;99.90
12708;DHT22;6418;50.824;4.718;2022-07-12T12:30:51;27.90;99.90
12708;DHT22;6418;50.824;4.718;2022-07-12T12:33:34;28.00;99.90
12708;DHT22;6418;50.824;4.718;2022-07-12T12:36:17;28.20;99.90
12708;DHT22;6418;50.824;4.718;2022-07-12T12:38:44;28.30;99.90
12708;DHT22;6418;50.824;4.718;2022-07-12T12:41:12;28.40;99.90
12708;DHT22;6418;50.824;4.718;2022-07-12T12:43:40;28.50;99.90
12708;DHT22;6418;50.824;4.718;2022-07-12T12:46:08;28.60;99.90
12708;DHT22;6418;50.824;4.718;2022-07-12T12:48:35;28.70;99.90
12708;DHT22;6418;50.824;4.718;2022-07-12T12:51:04;28.70;99.90
12708;DHT22;6418;50.824;4.718;2022-07-12T12:53:32;28.80;99.90
12708;DHT22;6418;50.824;4.718;2022-07-12T12:55:59;28.80;99.90
12708;DHT22;6418;50.824;4.718;2022-07-12T12:58:26;28.90;99.90
12708;DHT22;6418;50.824;4.718;2022-07-12T13:00:54;29.10;99.90
12708;DHT22;6418;50.824;4.718;2022-07-12T13:03:23;29.30;99.90
12708;DHT22;6418;50.824;4.718;2022-07-12T13:05:51;29.50;99.90
12708;DHT22;6418;50.824;4.718;2022-07-12T13:08:19;29.70;99.90
12708;DHT22;6418;50.824;4.718;2022-07-12T13:10:47;29.90;99.90
12708;DHT22;6418;50.824;4.718;2022-07-12T13:13:35;30.20;99.90
12708;DHT22;6418;50.824;4.718;2022-07-12T13:16:03;30.50;99.90
12708;DHT22;6418;50.824;4.718;2022-07-12T13:18:32;30.80;99.90
12708;DHT22;6418;50.824;4.718;2022-07-12T13:20:59;31.10;99.90
12708;DHT22;6418;50.824;4.718;2022-07-12T13:23:26;31.40;99.90
12708;DHT22;6418;50.824;4.718;2022-07-12T13:25:53;31.80;99.90
12708;DHT22;6418;50.824;4.718;2022-07-12T13:28:19;32.10;99.90
12708;DHT22;6418;50.824;4.718;2022-07-12T13:30:46;32.30;99.90
12708;DHT22;6418;50.824;4.718;2022-07-12T13:33:13;32.60;99.90
12708;DHT22;6418;50.824;4.718;2022-07-12T13:35:42;32.90;99.90
12708;DHT22;6418;50.824;4.718;2022-07-12T13:38:10;33.10;99.90
12708;DHT22;6418;50.824;4.718;2022-07-12T13:40:37;33.30;98.20
12708;DHT22;6418;50.824;4.718;2022-07-12T13:43:04;33.30;99.90
12708;DHT22;6418;50.824;4.718;2022-07-12T13:45:31;33.50;99.90
12708;DHT22;6418;50.824;4.718;2022-07-12T13:48:00;33.70;99.90
12708;DHT22;6418;50.824;4.718;2022-07-12T13:50:28;34.00;99.90
12708;DHT22;6418;50.824;4.718;2022-07-12T13:52:56;34.30;99.90
12708;DHT22;6418;50.824;4.718;2022-07-12T13:55:24;34.50;99.90
12708;DHT22;6418;50.824;4.718;2022-07-12T13:57:51;34.50;99.90
12708;DHT22;6418;50.824;4.718;2022-07-12T14:00:18;34.50;99.90
12708;DHT22;6418;50.824;4.718;2022-07-12T14:02:46;34.50;99.90
12708;DHT22;6418;50.824;4.718;2022-07-12T14:05:14;34.50;99.90
12708;DHT22;6418;50.824;4.718;2022-07-12T14:07:42;34.70;99.90
12708;DHT22;6418;50.824;4.718;2022-07-12T14:10:12;34.90;99.90
12708;DHT22;6418;50.824;4.718;2022-07-12T14:12:39;35.20;99.90
12708;DHT22;6418;50.824;4.718;2022-07-12T14:15:08;35.40;99.90
12708;DHT22;6418;50.824;4.718;2022-07-12T14:17:46;35.60;97.10
12708;DHT22;6418;50.824;4.718;2022-07-12T14:20:16;35.90;98.00
12708;DHT22;6418;50.824;4.718;2022-07-12T14:22:43;36.00;95.10
12708;DHT22;6418;50.824;4.718;2022-07-12T14:25:12;36.30;97.80
12708;DHT22;6418;50.824;4.718;2022-07-12T14:27:40;36.30;93.30
12708;DHT22;6418;50.824;4.718;2022-07-12T14:30:09;36.80;99.30
12708;DHT22;6418;50.824;4.718;2022-07-12T14:32:36;37.30;99.50
12708;DHT22;6418;50.824;4.718;2022-07-12T14:35:04;37.50;99.90
12708;DHT22;6418;50.824;4.718;2022-07-12T14:37:32;37.70;97.20
12708;DHT22;6418;50.824;4.718;2022-07-12T14:39:59;38.00;96.00
12708;DHT22;6418;50.824;4.718;2022-07-12T14:42:27;38.30;98.10
12708;DHT22;6418;50.824;4.718;2022-07-12T14:44:54;38.40;98.70
12708;DHT22;6418;50.824;4.718;2022-07-12T14:47:21;38.50;94.10
12708;DHT22;6418;50.824;4.718;2022-07-12T14:49:48;38.70;95.70
12708;DHT22;6418;50.824;4.718;2022-07-12T14:52:16;39.00;97.10
12708;DHT22;6418;50.824;4.718;2022-07-12T14:54:43;39.30;95.10
12708;DHT22;6418;50.824;4.718;2022-07-12T14:57:11;39.60;96.70
12708;DHT22;6418;50.824;4.718;2022-07-12T14:59:39;39.80;95.70
12708;DHT22;6418;50.824;4.718;2022-07-12T15:02:06;40.00;93.70
12708;DHT22;6418;50.824;4.718;2022-07-12T15:04:33;40.10;92.90
12708;DHT22;6418;50.824;4.718;2022-07-12T15:07:00;40.30;95.50
12708;DHT22;6418;50.824;4.718;2022-07-12T15:09:27;40.60;94.30
12708;DHT22;6418;50.824;4.718;2022-07-12T15:11:54;40.60;90.30
12708;DHT22;6418;50.824;4.718;2022-07-12T15:14:21;40.60;85.90
12708;DHT22;6418;50.824;4.718;2022-07-12T15:16:50;40.30;81.50
12708;DHT22;6418;50.824;4.718;2022-07-12T15:19:17;40.20;82.60
12708;DHT22;6418;50.824;4.718;2022-07-12T15:21:43;40.40;90.30
12708;DHT22;6418;50.824;4.718;2022-07-12T15:24:10;40.60;91.90
12708;DHT22;6418;50.824;4.718;2022-07-12T15:26:37;40.60;92.50
12708;DHT22;6418;50.824;4.718;2022-07-12T15:29:05;40.60;89.60
12708;DHT22;6418;50.824;4.718;2022-07-12T15:31:32;40.50;92.90
12708;DHT22;6418;50.824;4.718;2022-07-12T15:34:01;40.40;92.80
12708;DHT22;6418;50.824;4.718;2022-07-12T15:36:28;40.20;90.70
12708;DHT22;6418;50.824;4.718;2022-07-12T15:38:55;40.10;93.10
12708;DHT22;6418;50.824;4.718;2022-07-12T15:41:22;39.90;92.90
12708;DHT22;6418;50.824;4.718;2022-07-12T15:43:49;39.60;86.30
12708;DHT22;6418;50.824;4.718;2022-07-12T15:46:16;39.40;92.70
12708;DHT22;6418;50.824;4.718;2022-07-12T15:48:43;39.10;88.40
12708;DHT22;6418;50.824;4.718;2022-07-12T15:51:11;39.00;89.40
12708;DHT22;6418;50.824;4.718;2022-07-12T15:53:38;38.90;91.90